sensor_id;sensor_type;location;lat;lon;timestamp;pressure;altitude;pressure_sealevel;temperature;humidity
47592;BME280;33317;33.356;-117.184;2023-12-29T00:00:58;99636.24;;;30.63;24.54
47592;BME280;33317;33.356;-117.184;2023-12-29T00:03:27;99634.80;;;30.66;24.57
47592;BME280;33317;33.356;-117.184;2023-12-29T00:05:55;99633.26;;;30.37;24.59
47592;BME280;33317;33.356;-117.184;2023-12-29T00:08:23;99632.29;;;30.34;24.63
47592;BME280;33317;33.356;-117.184;2023-12-29T00:10:52;99632.71;;;30.62;24.64
47592;BME280;33317;33.356;-117.184;2023-12-29T00:13:20;99634.24;;;30.53;24.71
47592;BME280;33317;33.356;-117.184;2023-12-29T00:15:51;99636.94;;;30.52;24.73
47592;BME280;33317;33.356;-117.184;2023-12-29T00:18:20;99640.31;;;30.52;24.74
47592;BME280;33317;33.356;-117.184;2023-12-29T00:20:48;99637.37;;;30.52;24.75
47592;BME280;33317;33.356;-117.184;2023-12-29T00:23:16;99635.13;;;30.50;24.80
47592;BME280;33317;33.356;-117.184;2023-12-29T00:25:45;99630.78;;;30.44;24.78
47592;BME280;33317;33.356;-117.184;2023-12-29T00:28:14;99633.98;;;30.38;24.86
47592;BME280;33317;33.356;-117.184;2023-12-29T00:30:42;99636.95;;;30.35;24.88
47592;BME280;33317;33.356;-117.184;2023-12-29T00:33:10;99634.33;;;30.52;25.00
47592;BME280;33317;33.356;-117.184;2023-12-29T00:35:39;99632.53;;;30.27;24.98
47592;BME280;33317;33.356;-117.184;2023-12-29T00:38:08;99632.88;;;30.22;25.04
47592;BME280;33317;33.356;-117.184;2023-12-29T00:40:36;99635.50;;;30.66;25.07
47592;BME280;33317;33.356;-117.184;2023-12-29T00:43:04;99632.36;;;30.13;25.09
47592;BME280;33317;33.356;-117.184;2023-12-29T00:45:33;99631.78;;;30.28;25.16
47592;BME280;33317;33.356;-117.184;2023-12-29T00:48:01;99634.59;;;29.99;25.22
47592;BME280;33317;33.356;-117.184;2023-12-29T00:50:29;99637.44;;;30.13;25.31
47592;BME280;33317;33.356;-117.184;2023-12-29T00:52:58;99640.82;;;29.86;25.35
47592;BME280;33317;33.356;-117.184;2023-12-29T00:55:26;99638.47;;;30.02;25.45
47592;BME280;33317;33.356;-117.184;2023-12-29T00:57:55;99638.04;;;30.22;25.49
47592;BME280;33317;33.356;-117.184;2023-12-29T01:00:23;99637.08;;;30.15;25.60
47592;BME280;33317;33.356;-117.184;2023-12-29T01:02:51;99634.15;;;29.81;25.62
47592;BME280;33317;33.356;-117.184;2023-12-29T01:05:20;99634.09;;;29.99;25.66
47592;BME280;33317;33.356;-117.184;2023-12-29T01:07:49;99633.68;;;29.65;25.79
47592;BME280;33317;33.356;-117.184;2023-12-29T01:10:17;99630.00;;;29.85;25.74
47592;BME280;33317;33.356;-117.184;2023-12-29T01:12:46;99628.65;;;29.50;25.69
47592;BME280;33317;33.356;-117.184;2023-12-29T01:15:14;99628.12;;;29.62;25.89
47592;BME280;33317;33.356;-117.184;2023-12-29T01:17:43;99630.88;;;29.57;26.06
47592;BME280;33317;33.356;-117.184;2023-12-29T01:20:11;99634.53;;;29.52;25.97
47592;BME280;33317;33.356;-117.184;2023-12-29T01:22:40;99641.54;;;29.22;26.06
47592;BME280;33317;33.356;-117.184;2023-12-29T01:25:08;99645.16;;;29.43;26.22
47592;BME280;33317;33.356;-117.184;2023-12-29T01:27:37;99654.01;;;29.37;26.13
47592;BME280;33317;33.356;-117.184;2023-12-29T01:30:06;99661.13;;;29.29;26.27
47592;BME280;33317;33.356;-117.184;2023-12-29T01:32:35;99664.56;;;29.22;26.30
47592;BME280;33317;33.356;-117.184;2023-12-29T01:35:04;99667.93;;;29.16;26.34
47592;BME280;33317;33.356;-117.184;2023-12-29T01:37:33;99667.06;;;29.11;26.43
47592;BME280;33317;33.356;-117.184;2023-12-29T01:40:01;99665.00;;;29.03;26.40
47592;BME280;33317;33.356;-117.184;2023-12-29T01:42:30;99660.79;;;29.03;26.52
47592;BME280;33317;33.356;-117.184;2023-12-29T01:44:58;99656.24;;;28.98;26.52
47592;BME280;33317;33.356;-117.184;2023-12-29T01:47:28;99658.51;;;29.15;26.45
47592;BME280;33317;33.356;-117.184;2023-12-29T01:49:56;99663.67;;;28.88;26.54
47592;BME280;33317;33.356;-117.184;2023-12-29T01:52:24;99666.08;;;28.82;26.42
47592;BME280;33317;33.356;-117.184;2023-12-29T01:54:54;99664.56;;;28.94;26.57
47592;BME280;33317;33.356;-117.184;2023-12-29T01:57:23;99663.66;;;28.65;26.53
47592;BME280;33317;33.356;-117.184;2023-12-29T01:59:51;99663.13;;;28.78;26.67
47592;BME280;33317;33.356;-117.184;2023-12-29T02:02:19;99666.33;;;28.54;26.66
47592;BME280;33317;33.356;-117.184;2023-12-29T02:04:48;99673.91;;;28.73;26.80
47592;BME280;33317;33.356;-117.184;2023-12-29T02:07:17;99678.28;;;28.45;26.76
47592;BME280;33317;33.356;-117.184;2023-12-29T02:09:47;99678.03;;;28.62;26.92
47592;BME280;33317;33.356;-117.184;2023-12-29T02:12:15;99676.55;;;28.55;26.98
47592;BME280;33317;33.356;-117.184;2023-12-29T02:14:43;99681.23;;;28.69;27.01
47592;BME280;33317;33.356;-117.184;2023-12-29T02:17:21;99686.70;;;28.64;27.16
47592;BME280;33317;33.356;-117.184;2023-12-29T02:19:50;99688.69;;;28.63;27.23
47592;BME280;33317;33.356;-117.184;2023-12-29T02:22:19;99687.25;;;28.44;27.52
47592;BME280;33317;33.356;-117.184;2023-12-29T02:24:49;99684.87;;;28.44;27.25
47592;BME280;33317;33.356;-117.184;2023-12-29T02:27:32;99686.55;;;28.41;27.51
47592;BME280;33317;33.356;-117.184;2023-12-29T02:30:08;99690.84;;;28.23;27.38
47592;BME280;33317;33.356;-117.184;2023-12-29T02:32:39;99693.03;;;28.44;27.32
47592;BME280;33317;33.356;-117.184;2023-12-29T02:35:13;99692.68;;;28.38;27.24
47592;BME280;33317;33.356;-117.184;2023-12-29T02:37:46;99691.97;;;28.34;27.36
47592;BME280;33317;33.356;-117.184;2023-12-29T02:40:15;99692.66;;;28.08;27.33
47592;BME280;33317;33.356;-117.184;2023-12-29T02:42:47;99689.27;;;28.54;27.40
47592;BME280;33317;33.356;-117.184;2023-12-29T02:45:15;99689.57;;;27.99;27.56
47592;BME280;33317;33.356;-117.184;2023-12-29T02:47:44;99692.64;;;28.19;27.44
47592;BME280;33317;33.356;-117.184;2023-12-29T02:50:13;99690.86;;;28.16;27.49
47592;BME280;33317;33.356;-117.184;2023-12-29T02:52:41;99691.65;;;28.09;27.46
47592;BME280;33317;33.356;-117.184;2023-12-29T02:55:10;99693.21;;;28.09;27.64
47592;BME280;33317;33.356;-117.184;2023-12-29T02:57:38;99694.32;;;28.33;27.62
47592;BME280;33317;33.356;-117.184;2023-12-29T03:00:08;99693.25;;;28.01;27.57
47592;BME280;33317;33.356;-117.184;2023-12-29T03:02:37;99694.75;;;27.91;27.70
47592;BME280;33317;33.356;-117.184;2023-12-29T03:05:07;99690.11;;;27.86;27.79
47592;BME280;33317;33.356;-117.184;2023-12-29T03:07:36;99687.96;;;27.84;27.75
47592;BME280;33317;33.356;-117.184;2023-12-29T03:10:06;99693.99;;;27.83;27.83
47592;BME280;33317;33.356;-117.184;2023-12-29T03:12:34;99697.98;;;27.79;27.86
47592;BME280;33317;33.356;-117.184;2023-12-29T03:15:03;99700.89;;;27.77;27.77
47592;BME280;33317;33.356;-117.184;2023-12-29T03:17:31;99701.16;;;27.75;27.77
47592;BME280;33317;33.356;-117.184;2023-12-29T03:20:02;99700.99;;;27.69;27.87
47592;BME280;33317;33.356;-117.184;2023-12-29T03:22:32;99699.85;;;27.89;27.92
47592;BME280;33317;33.356;-117.184;2023-12-29T03:25:00;99701.68;;;27.86;28.03
47592;BME280;33317;33.356;-117.184;2023-12-29T03:27:30;99705.60;;;27.53;27.88
47592;BME280;33317;33.356;-117.184;2023-12-29T03:29:58;99709.74;;;27.76;27.97
47592;BME280;33317;33.356;-117.184;2023-12-29T03:32:27;99711.77;;;27.45;27.82
47592;BME280;33317;33.356;-117.184;2023-12-29T03:34:55;99709.66;;;27.72;27.82
47592;BME280;33317;33.356;-117.184;2023-12-29T03:37:23;99709.45;;;27.40;27.89
47592;BME280;33317;33.356;-117.184;2023-12-29T03:39:52;99707.49;;;27.60;27.89
47592;BME280;33317;33.356;-117.184;2023-12-29T03:42:20;99708.12;;;27.26;28.00
47592;BME280;33317;33.356;-117.184;2023-12-29T03:44:48;99708.00;;;27.76;27.91
47592;BME280;33317;33.356;-117.184;2023-12-29T03:47:20;99705.52;;;27.51;27.88
47592;BME280;33317;33.356;-117.184;2023-12-29T03:49:49;99704.86;;;27.19;27.94
47592;BME280;33317;33.356;-117.184;2023-12-29T03:52:18;99698.87;;;27.65;28.00
47592;BME280;33317;33.356;-117.184;2023-12-29T03:54:47;99695.80;;;27.59;28.04
47592;BME280;33317;33.356;-117.184;2023-12-29T03:57:17;99692.98;;;27.31;28.05
47592;BME280;33317;33.356;-117.184;2023-12-29T03:59:45;99689.97;;;27.28;28.13
47592;BME280;33317;33.356;-117.184;2023-12-29T04:02:18;99691.26;;;27.47;28.14
47592;BME280;33317;33.356;-117.184;2023-12-29T04:04:47;99692.84;;;27.44;28.26
47592;BME280;33317;33.356;-117.184;2023-12-29T04:07:15;99693.83;;;27.23;28.21
47592;BME280;33317;33.356;-117.184;2023-12-29T04:09:43;99692.24;;;27.21;28.16
47592;BME280;33317;33.356;-117.184;2023-12-29T04:12:15;99691.57;;;27.35;28.18
47592;BME280;33317;33.356;-117.184;2023-12-29T04:14:43;99690.58;;;27.11;28.31
47592;BME280;33317;33.356;-117.184;2023-12-29T04:17:15;99688.77;;;27.14;28.25
47592;BME280;33317;33.356;-117.184;2023-12-29T04:19:44;99688.76;;;26.86;28.08
47592;BME280;33317;33.356;-117.184;2023-12-29T04:22:12;99688.50;;;27.33;28.30
47592;BME280;33317;33.356;-117.184;2023-12-29T04:24:41;99687.07;;;27.37;28.26
47592;BME280;33317;33.356;-117.184;2023-12-29T04:27:15;99689.04;;;27.30;28.20
47592;BME280;33317;33.356;-117.184;2023-12-29T04:29:45;99692.19;;;27.26;28.24
47592;BME280;33317;33.356;-117.184;2023-12-29T04:32:15;99689.68;;;27.21;28.35
47592;BME280;33317;33.356;-117.184;2023-12-29T04:34:43;99687.28;;;27.26;28.21
47592;BME280;33317;33.356;-117.184;2023-12-29T04:37:11;99689.49;;;27.03;28.20
47592;BME280;33317;33.356;-117.184;2023-12-29T04:39:40;99693.69;;;27.21;28.28
47592;BME280;33317;33.356;-117.184;2023-12-29T04:42:10;99696.86;;;27.17;28.23
47592;BME280;33317;33.356;-117.184;2023-12-29T04:44:40;99703.62;;;27.11;28.27
47592;BME280;33317;33.356;-117.184;2023-12-29T04:47:10;99704.57;;;26.93;28.41
47592;BME280;33317;33.356;-117.184;2023-12-29T04:49:39;99706.51;;;27.17;28.41
47592;BME280;33317;33.356;-117.184;2023-12-29T04:52:08;99710.51;;;27.06;28.32
47592;BME280;33317;33.356;-117.184;2023-12-29T04:54:36;99712.56;;;26.84;28.18
47592;BME280;33317;33.356;-117.184;2023-12-29T04:57:05;99713.51;;;27.17;28.19
47592;BME280;33317;33.356;-117.184;2023-12-29T04:59:33;99713.90;;;27.09;28.35
47592;BME280;33317;33.356;-117.184;2023-12-29T05:02:02;99709.10;;;26.58;29.26
47592;BME280;33317;33.356;-117.184;2023-12-29T05:04:30;99707.90;;;27.04;28.26
47592;BME280;33317;33.356;-117.184;2023-12-29T05:06:58;99703.99;;;27.05;28.45
47592;BME280;33317;33.356;-117.184;2023-12-29T05:09:27;99697.80;;;27.12;28.31
47592;BME280;33317;33.356;-117.184;2023-12-29T05:11:55;99693.81;;;26.90;28.13
47592;BME280;33317;33.356;-117.184;2023-12-29T05:14:25;99688.08;;;26.90;28.21
47592;BME280;33317;33.356;-117.184;2023-12-29T05:16:54;99684.24;;;27.15;28.00
47592;BME280;33317;33.356;-117.184;2023-12-29T05:19:22;99686.92;;;27.21;28.47
47592;BME280;33317;33.356;-117.184;2023-12-29T05:21:50;99692.59;;;27.01;28.23
47592;BME280;33317;33.356;-117.184;2023-12-29T05:24:19;99697.99;;;26.93;28.54
47592;BME280;33317;33.356;-117.184;2023-12-29T05:26:47;99698.86;;;27.04;28.27
47592;BME280;33317;33.356;-117.184;2023-12-29T05:29:15;99698.52;;;27.02;28.45
47592;BME280;33317;33.356;-117.184;2023-12-29T05:31:44;99695.94;;;27.06;28.23
47592;BME280;33317;33.356;-117.184;2023-12-29T05:34:12;99690.57;;;27.04;28.43
47592;BME280;33317;33.356;-117.184;2023-12-29T05:36:41;99687.21;;;27.08;28.16
47592;BME280;33317;33.356;-117.184;2023-12-29T05:39:09;99682.85;;;26.98;28.69
47592;BME280;33317;33.356;-117.184;2023-12-29T05:41:37;99684.43;;;26.94;28.46
47592;BME280;33317;33.356;-117.184;2023-12-29T05:44:06;99690.23;;;26.77;28.50
47592;BME280;33317;33.356;-117.184;2023-12-29T05:46:34;99692.19;;;26.71;28.66
47592;BME280;33317;33.356;-117.184;2023-12-29T05:49:03;99691.86;;;26.55;28.93
47592;BME280;33317;33.356;-117.184;2023-12-29T05:51:31;99690.80;;;26.47;28.97
47592;BME280;33317;33.356;-117.184;2023-12-29T05:53:59;99690.32;;;26.41;29.01
47592;BME280;33317;33.356;-117.184;2023-12-29T05:56:28;99686.31;;;26.46;28.68
47592;BME280;33317;33.356;-117.184;2023-12-29T05:58:56;99684.17;;;26.63;28.96
47592;BME280;33317;33.356;-117.184;2023-12-29T06:01:25;99680.58;;;26.54;28.75
47592;BME280;33317;33.356;-117.184;2023-12-29T06:03:53;99680.66;;;26.54;28.94
47592;BME280;33317;33.356;-117.184;2023-12-29T06:06:22;99678.37;;;26.38;29.02
47592;BME280;33317;33.356;-117.184;2023-12-29T06:08:51;99685.26;;;26.40;28.87
47592;BME280;33317;33.356;-117.184;2023-12-29T06:11:19;99689.76;;;26.12;29.44
47592;BME280;33317;33.356;-117.184;2023-12-29T06:13:47;99682.24;;;26.32;28.80
47592;BME280;33317;33.356;-117.184;2023-12-29T06:16:19;99679.54;;;26.79;28.82
47592;BME280;33317;33.356;-117.184;2023-12-29T06:18:48;99674.54;;;26.23;28.95
47592;BME280;33317;33.356;-117.184;2023-12-29T06:21:16;99674.74;;;26.36;29.04
47592;BME280;33317;33.356;-117.184;2023-12-29T06:23:45;99674.45;;;26.50;29.11
47592;BME280;33317;33.356;-117.184;2023-12-29T06:26:17;99670.80;;;26.28;29.05
47592;BME280;33317;33.356;-117.184;2023-12-29T06:28:46;99664.41;;;26.43;29.11
47592;BME280;33317;33.356;-117.184;2023-12-29T06:31:16;99661.90;;;26.05;29.04
47592;BME280;33317;33.356;-117.184;2023-12-29T06:33:44;99664.66;;;26.36;28.90
47592;BME280;33317;33.356;-117.184;2023-12-29T06:36:13;99664.83;;;25.82;29.06
47592;BME280;33317;33.356;-117.184;2023-12-29T06:38:41;99669.75;;;26.24;29.03
47592;BME280;33317;33.356;-117.184;2023-12-29T06:41:09;99671.89;;;25.98;29.02
47592;BME280;33317;33.356;-117.184;2023-12-29T06:43:38;99680.76;;;26.06;29.22
47592;BME280;33317;33.356;-117.184;2023-12-29T06:46:06;99685.49;;;25.53;29.32
47592;BME280;33317;33.356;-117.184;2023-12-29T06:48:35;99692.46;;;25.78;29.73
47592;BME280;33317;33.356;-117.184;2023-12-29T06:51:04;99695.90;;;25.85;29.01
47592;BME280;33317;33.356;-117.184;2023-12-29T06:53:32;99690.12;;;26.10;28.97
47592;BME280;33317;33.356;-117.184;2023-12-29T06:56:00;99678.60;;;26.02;29.01
47592;BME280;33317;33.356;-117.184;2023-12-29T06:58:29;99663.84;;;25.87;29.14
47592;BME280;33317;33.356;-117.184;2023-12-29T07:00:58;99657.51;;;25.78;29.53
47592;BME280;33317;33.356;-117.184;2023-12-29T07:03:27;99652.08;;;25.68;29.46
47592;BME280;33317;33.356;-117.184;2023-12-29T07:05:55;99649.30;;;25.46;29.62
47592;BME280;33317;33.356;-117.184;2023-12-29T07:08:24;99647.27;;;25.39;29.92
47592;BME280;33317;33.356;-117.184;2023-12-29T07:10:52;99651.09;;;25.62;29.79
47592;BME280;33317;33.356;-117.184;2023-12-29T07:13:20;99659.47;;;25.40;29.67
47592;BME280;33317;33.356;-117.184;2023-12-29T07:15:49;99658.52;;;25.51;29.54
47592;BME280;33317;33.356;-117.184;2023-12-29T07:18:17;99659.30;;;25.39;29.60
47592;BME280;33317;33.356;-117.184;2023-12-29T07:20:46;99655.48;;;25.44;29.46
47592;BME280;33317;33.356;-117.184;2023-12-29T07:23:14;99652.43;;;25.28;29.56
47592;BME280;33317;33.356;-117.184;2023-12-29T07:25:43;99648.09;;;25.36;29.77
47592;BME280;33317;33.356;-117.184;2023-12-29T07:28:11;99649.07;;;25.04;30.14
47592;BME280;33317;33.356;-117.184;2023-12-29T07:30:39;99648.92;;;25.45;29.67
47592;BME280;33317;33.356;-117.184;2023-12-29T07:33:07;99647.32;;;24.59;30.46
47592;BME280;33317;33.356;-117.184;2023-12-29T07:35:36;99645.33;;;24.36;30.76
47592;BME280;33317;33.356;-117.184;2023-12-29T07:38:04;99639.89;;;24.86;30.61
47592;BME280;33317;33.356;-117.184;2023-12-29T07:40:33;99635.66;;;25.03;29.98
47592;BME280;33317;33.356;-117.184;2023-12-29T07:43:01;99634.86;;;24.92;30.10
47592;BME280;33317;33.356;-117.184;2023-12-29T07:45:29;99634.61;;;24.88;29.98
47592;BME280;33317;33.356;-117.184;2023-12-29T07:47:58;99632.38;;;25.01;29.96
47592;BME280;33317;33.356;-117.184;2023-12-29T07:50:26;99629.38;;;25.10;29.97
47592;BME280;33317;33.356;-117.184;2023-12-29T07:52:54;99627.03;;;24.78;30.00
47592;BME280;33317;33.356;-117.184;2023-12-29T07:55:23;99628.81;;;24.81;30.12
47592;BME280;33317;33.356;-117.184;2023-12-29T07:57:51;99632.24;;;24.82;29.95
47592;BME280;33317;33.356;-117.184;2023-12-29T08:00:20;99631.63;;;24.39;30.34
47592;BME280;33317;33.356;-117.184;2023-12-29T08:02:48;99632.57;;;24.72;30.09
47592;BME280;33317;33.356;-117.184;2023-12-29T08:05:17;99635.50;;;24.50;30.02
47592;BME280;33317;33.356;-117.184;2023-12-29T08:07:45;99639.27;;;24.84;30.03
47592;BME280;33317;33.356;-117.184;2023-12-29T08:10:14;99638.41;;;24.72;29.68
47592;BME280;33317;33.356;-117.184;2023-12-29T08:12:42;99634.86;;;24.80;30.42
47592;BME280;33317;33.356;-117.184;2023-12-29T08:15:10;99630.01;;;24.56;30.35
47592;BME280;33317;33.356;-117.184;2023-12-29T08:17:39;99629.46;;;24.60;30.49
47592;BME280;33317;33.356;-117.184;2023-12-29T08:20:08;99624.30;;;24.61;30.36
47592;BME280;33317;33.356;-117.184;2023-12-29T08:22:36;99622.65;;;24.52;30.70
47592;BME280;33317;33.356;-117.184;2023-12-29T08:25:05;99623.93;;;24.50;30.39
47592;BME280;33317;33.356;-117.184;2023-12-29T08:27:33;99626.05;;;24.31;30.59
47592;BME280;33317;33.356;-117.184;2023-12-29T08:30:02;99629.71;;;24.09;30.86
47592;BME280;33317;33.356;-117.184;2023-12-29T08:32:30;99628.42;;;24.24;31.02
47592;BME280;33317;33.356;-117.184;2023-12-29T08:34:59;99625.54;;;23.73;30.88
47592;BME280;33317;33.356;-117.184;2023-12-29T08:37:27;99622.60;;;23.84;30.92
47592;BME280;33317;33.356;-117.184;2023-12-29T08:39:55;99623.04;;;24.05;30.90
47592;BME280;33317;33.356;-117.184;2023-12-29T08:42:24;99621.72;;;23.61;31.60
47592;BME280;33317;33.356;-117.184;2023-12-29T08:44:52;99618.89;;;23.82;30.95
47592;BME280;33317;33.356;-117.184;2023-12-29T08:47:20;99616.22;;;23.85;31.17
47592;BME280;33317;33.356;-117.184;2023-12-29T08:49:49;99616.07;;;24.16;30.52
47592;BME280;33317;33.356;-117.184;2023-12-29T08:52:17;99619.92;;;24.13;30.42
47592;BME280;33317;33.356;-117.184;2023-12-29T08:54:46;99622.37;;;24.14;30.67
47592;BME280;33317;33.356;-117.184;2023-12-29T08:57:14;99628.05;;;23.79;30.95
47592;BME280;33317;33.356;-117.184;2023-12-29T08:59:42;99627.52;;;23.80;31.04
47592;BME280;33317;33.356;-117.184;2023-12-29T09:02:11;99627.45;;;23.88;31.08
47592;BME280;33317;33.356;-117.184;2023-12-29T09:04:39;99631.29;;;23.52;31.32
47592;BME280;33317;33.356;-117.184;2023-12-29T09:07:08;99633.46;;;23.60;31.17
47592;BME280;33317;33.356;-117.184;2023-12-29T09:09:36;99627.08;;;22.96;31.93
47592;BME280;33317;33.356;-117.184;2023-12-29T09:12:05;99625.34;;;23.54;31.11
47592;BME280;33317;33.356;-117.184;2023-12-29T09:14:34;99621.41;;;23.56;31.01
47592;BME280;33317;33.356;-117.184;2023-12-29T09:17:02;99615.63;;;23.65;31.06
47592;BME280;33317;33.356;-117.184;2023-12-29T09:19:31;99617.63;;;24.00;30.40
47592;BME280;33317;33.356;-117.184;2023-12-29T09:21:59;99622.60;;;23.86;30.54
47592;BME280;33317;33.356;-117.184;2023-12-29T09:24:28;99635.31;;;23.55;31.11
47592;BME280;33317;33.356;-117.184;2023-12-29T09:26:56;99636.07;;;23.46;31.13
47592;BME280;33317;33.356;-117.184;2023-12-29T09:29:24;99643.32;;;23.26;31.49
47592;BME280;33317;33.356;-117.184;2023-12-29T09:31:52;99644.24;;;22.91;31.56
47592;BME280;33317;33.356;-117.184;2023-12-29T09:34:21;99640.43;;;23.48;30.93
47592;BME280;33317;33.356;-117.184;2023-12-29T09:36:49;99634.33;;;23.35;31.62
47592;BME280;33317;33.356;-117.184;2023-12-29T09:39:18;99627.04;;;23.20;31.76
47592;BME280;33317;33.356;-117.184;2023-12-29T09:41:47;99625.14;;;23.53;31.29
47592;BME280;33317;33.356;-117.184;2023-12-29T09:44:21;99625.30;;;23.13;31.58
47592;BME280;33317;33.356;-117.184;2023-12-29T09:46:54;99627.85;;;22.97;31.63
47592;BME280;33317;33.356;-117.184;2023-12-29T09:49:23;99627.28;;;22.89;32.03
47592;BME280;33317;33.356;-117.184;2023-12-29T09:51:52;99625.27;;;22.96;32.08
47592;BME280;33317;33.356;-117.184;2023-12-29T09:54:21;99620.69;;;23.20;31.62
47592;BME280;33317;33.356;-117.184;2023-12-29T09:56:50;99615.45;;;22.96;31.85
47592;BME280;33317;33.356;-117.184;2023-12-29T09:59:18;99617.27;;;22.77;32.05
47592;BME280;33317;33.356;-117.184;2023-12-29T10:01:47;99616.84;;;22.84;31.99
47592;BME280;33317;33.356;-117.184;2023-12-29T10:04:16;99616.76;;;22.88;32.04
47592;BME280;33317;33.356;-117.184;2023-12-29T10:06:45;99618.85;;;23.10;31.75
47592;BME280;33317;33.356;-117.184;2023-12-29T10:09:15;99620.17;;;22.71;32.07
47592;BME280;33317;33.356;-117.184;2023-12-29T10:11:47;99620.51;;;22.17;33.11
47592;BME280;33317;33.356;-117.184;2023-12-29T10:14:24;99619.95;;;22.79;32.19
47592;BME280;33317;33.356;-117.184;2023-12-29T10:17:06;99616.91;;;22.57;32.57
47592;BME280;33317;33.356;-117.184;2023-12-29T10:19:39;99618.44;;;21.92;33.04
47592;BME280;33317;33.356;-117.184;2023-12-29T10:22:14;99629.82;;;22.31;32.28
47592;BME280;33317;33.356;-117.184;2023-12-29T10:24:43;99631.21;;;22.57;32.03
47592;BME280;33317;33.356;-117.184;2023-12-29T10:27:11;99627.54;;;22.33;32.53
47592;BME280;33317;33.356;-117.184;2023-12-29T10:29:40;99626.58;;;22.31;32.51
47592;BME280;33317;33.356;-117.184;2023-12-29T10:32:08;99632.42;;;22.32;32.69
47592;BME280;33317;33.356;-117.184;2023-12-29T10:34:37;99639.93;;;22.75;31.85
47592;BME280;33317;33.356;-117.184;2023-12-29T10:37:06;99639.77;;;22.53;32.30
47592;BME280;33317;33.356;-117.184;2023-12-29T10:39:34;99636.96;;;22.03;32.52
47592;BME280;33317;33.356;-117.184;2023-12-29T10:42:05;99635.15;;;22.56;31.95
47592;BME280;33317;33.356;-117.184;2023-12-29T10:44:34;99630.45;;;22.25;32.48
47592;BME280;33317;33.356;-117.184;2023-12-29T10:47:09;99629.45;;;22.34;32.23
47592;BME280;33317;33.356;-117.184;2023-12-29T10:49:37;99628.42;;;21.91;33.12
47592;BME280;33317;33.356;-117.184;2023-12-29T10:52:12;99632.65;;;21.99;32.60
47592;BME280;33317;33.356;-117.184;2023-12-29T10:54:40;99627.60;;;21.62;33.05
47592;BME280;33317;33.356;-117.184;2023-12-29T10:57:11;99615.69;;;22.00;32.80
47592;BME280;33317;33.356;-117.184;2023-12-29T10:59:40;99611.69;;;22.10;32.90
47592;BME280;33317;33.356;-117.184;2023-12-29T11:02:12;99609.14;;;22.07;32.21
47592;BME280;33317;33.356;-117.184;2023-12-29T11:04:40;99599.66;;;21.88;32.88
47592;BME280;33317;33.356;-117.184;2023-12-29T11:07:12;99592.91;;;22.24;32.03
47592;BME280;33317;33.356;-117.184;2023-12-29T11:09:41;99590.38;;;22.26;32.16
47592;BME280;33317;33.356;-117.184;2023-12-29T11:12:10;99589.61;;;21.94;33.07
47592;BME280;33317;33.356;-117.184;2023-12-29T11:14:39;99582.57;;;21.86;32.83
47592;BME280;33317;33.356;-117.184;2023-12-29T11:17:09;99582.03;;;21.90;32.74
47592;BME280;33317;33.356;-117.184;2023-12-29T11:19:39;99577.52;;;22.33;32.73
47592;BME280;33317;33.356;-117.184;2023-12-29T11:22:09;99580.27;;;21.82;32.54
47592;BME280;33317;33.356;-117.184;2023-12-29T11:24:37;99586.76;;;22.20;32.36
47592;BME280;33317;33.356;-117.184;2023-12-29T11:27:07;99585.93;;;21.85;32.62
47592;BME280;33317;33.356;-117.184;2023-12-29T11:29:35;99587.23;;;22.03;32.37
47592;BME280;33317;33.356;-117.184;2023-12-29T11:32:06;99581.47;;;21.94;32.38
47592;BME280;33317;33.356;-117.184;2023-12-29T11:34:45;99577.79;;;22.41;32.48
47592;BME280;33317;33.356;-117.184;2023-12-29T11:37:26;99569.43;;;22.06;32.79
47592;BME280;33317;33.356;-117.184;2023-12-29T11:40:02;99561.39;;;22.02;32.14
47592;BME280;33317;33.356;-117.184;2023-12-29T11:42:36;99551.33;;;22.06;32.28
47592;BME280;33317;33.356;-117.184;2023-12-29T11:45:25;99553.76;;;21.58;33.00
47592;BME280;33317;33.356;-117.184;2023-12-29T11:47:53;99556.08;;;21.69;32.88
47592;BME280;33317;33.356;-117.184;2023-12-29T11:50:29;99550.97;;;21.37;33.18
47592;BME280;33317;33.356;-117.184;2023-12-29T11:52:57;99546.62;;;22.08;32.53
47592;BME280;33317;33.356;-117.184;2023-12-29T11:55:30;99546.56;;;22.05;32.41
47592;BME280;33317;33.356;-117.184;2023-12-29T11:57:58;99550.81;;;21.86;32.45
47592;BME280;33317;33.356;-117.184;2023-12-29T12:00:43;99555.21;;;22.09;32.47
47592;BME280;33317;33.356;-117.184;2023-12-29T12:03:17;99559.36;;;21.12;33.48
47592;BME280;33317;33.356;-117.184;2023-12-29T12:05:46;99560.38;;;21.90;32.47
47592;BME280;33317;33.356;-117.184;2023-12-29T12:08:28;99564.28;;;21.87;32.37
47592;BME280;33317;33.356;-117.184;2023-12-29T12:10:59;99557.98;;;21.82;32.08
47592;BME280;33317;33.356;-117.184;2023-12-29T12:14:09;99556.45;;;21.79;32.74
47592;BME280;33317;33.356;-117.184;2023-12-29T12:16:53;99552.79;;;22.07;32.69
47592;BME280;33317;33.356;-117.184;2023-12-29T12:19:22;99554.61;;;21.62;32.82
47592;BME280;33317;33.356;-117.184;2023-12-29T12:21:54;99550.21;;;21.41;32.90
47592;BME280;33317;33.356;-117.184;2023-12-29T12:24:22;99552.56;;;21.96;32.48
47592;BME280;33317;33.356;-117.184;2023-12-29T12:26:50;99555.96;;;22.02;31.98
47592;BME280;33317;33.356;-117.184;2023-12-29T12:29:18;99555.97;;;22.04;32.02
47592;BME280;33317;33.356;-117.184;2023-12-29T12:31:55;99556.87;;;21.21;33.17
47592;BME280;33317;33.356;-117.184;2023-12-29T12:34:24;99550.52;;;21.15;33.58
47592;BME280;33317;33.356;-117.184;2023-12-29T12:36:53;99554.79;;;21.02;33.65
47592;BME280;33317;33.356;-117.184;2023-12-29T12:39:22;99558.52;;;21.11;33.29
47592;BME280;33317;33.356;-117.184;2023-12-29T12:41:50;99560.29;;;21.72;32.90